createdAt,value
2019-06-01T00:01:12.006Z,13.34
2019-06-01T00:03:42.773Z,13.31
2019-06-01T00:06:13.625Z,13.28
2019-06-01T00:27:05.240Z,13.10
2019-06-01T00:29:40.541Z,13.05
2019-06-01T00:32:11.272Z,13.02
2019-06-01T00:34:47.685Z,12.96
2019-06-01T00:37:20.939Z,12.93
2019-06-01T00:39:53.360Z,12.91
2019-06-01T00:42:25.960Z,12.87
2019-06-01T00:44:58.799Z,12.84
2019-06-01T00:47:30.277Z,12.82
2019-06-01T00:50:00.979Z,12.74
2019-06-01T00:52:34.174Z,12.77
2019-06-01T00:55:05.672Z,12.76
2019-06-01T00:57:36.022Z,12.73
2019-06-01T01:00:07.384Z,12.73
2019-06-01T01:02:37.913Z,12.75
2019-06-01T01:05:22.331Z,12.73
2019-06-01T01:07:53.516Z,12.70
2019-06-01T01:10:24.587Z,12.67
2019-06-01T01:13:13.405Z,12.64
2019-06-01T01:15:43.803Z,12.61
2019-06-01T01:18:17.887Z,12.59
2019-06-01T01:20:52.041Z,12.57
2019-06-01T01:23:22.453Z,12.59
2019-06-01T01:25:52.820Z,12.60
2019-06-01T01:28:28.379Z,12.60
2019-06-01T01:31:13.349Z,12.58
2019-06-01T01:33:36.479Z,12.60
2019-06-01T01:36:07.307Z,12.59
2019-06-01T01:38:43.258Z,12.56
2019-06-01T01:41:15.413Z,12.57
2019-06-01T01:43:48.455Z,12.53
2019-06-01T01:46:18.879Z,12.51
2019-06-01T01:48:49.914Z,12.49
2019-06-01T01:51:25.424Z,12.49
2019-06-01T01:53:59.999Z,12.45
2019-06-01T01:56:30.426Z,12.41
2019-06-01T01:59:04.371Z,12.43
2019-06-01T02:01:36.072Z,12.43
2019-06-01T02:04:10.328Z,12.37
2019-06-01T02:06:43.892Z,12.32
2019-06-01T02:09:14.429Z,12.26
2019-06-01T02:11:45.033Z,12.23
2019-06-01T02:14:15.367Z,12.19
2019-06-01T02:16:54.423Z,12.16
2019-06-01T02:19:24.812Z,12.18
2019-06-01T02:21:56.462Z,12.16
2019-06-01T02:24:26.971Z,12.12
2019-06-01T02:26:57.331Z,12.10
2019-06-01T02:29:27.792Z,12.14
2019-06-01T02:31:59.136Z,12.14
2019-06-01T02:34:30.136Z,12.13
2019-06-01T02:37:00.517Z,12.14
2019-06-01T02:39:31.038Z,12.15
2019-06-01T02:42:03.252Z,12.08
2019-06-01T02:44:33.767Z,12.08
2019-06-01T02:47:06.191Z,12.06
2019-06-01T02:49:39.818Z,12.09
2019-06-01T02:52:12.871Z,12.05
2019-06-01T02:54:43.194Z,12.05
2019-06-01T02:57:21.574Z,12.08
2019-06-01T02:59:52.205Z,12.04
2019-06-01T03:02:22.649Z,11.98
2019-06-01T03:04:55.046Z,11.94
2019-06-01T03:07:29.642Z,11.94
2019-06-01T03:10:01.243Z,11.89
2019-06-01T03:12:35.307Z,11.86
2019-06-01T03:15:09.078Z,11.86
2019-06-01T03:17:43.306Z,11.88
2019-06-01T03:20:14.307Z,11.91
2019-06-01T03:22:46.557Z,11.88
2019-06-01T03:25:17.161Z,11.86
2019-06-01T03:27:49.931Z,11.83
2019-06-01T03:30:30.684Z,11.81
2019-06-01T03:33:01.225Z,11.82
2019-06-01T03:35:32.028Z,11.79
2019-06-01T03:38:03.003Z,11.76
2019-06-01T03:40:33.289Z,11.72
2019-06-01T03:43:04.288Z,11.71
2019-06-01T03:45:37.649Z,11.70
2019-06-01T03:48:08.756Z,11.70
2019-06-01T03:50:41.832Z,11.68
2019-06-01T03:53:12.287Z,11.67
2019-06-01T03:55:42.856Z,11.68
2019-06-01T03:58:13.312Z,11.67
2019-06-01T04:00:46.203Z,11.68
2019-06-01T04:03:18.107Z,11.72
2019-06-01T04:05:51.813Z,11.71
2019-06-01T04:08:22.164Z,11.72
2019-06-01T04:10:52.869Z,11.75
2019-06-01T04:13:23.214Z,11.81
2019-06-01T04:15:53.540Z,11.83
2019-06-01T04:18:26.159Z,11.89
2019-06-01T04:20:57.520Z,11.92
2019-06-01T04:23:27.899Z,11.96
2019-06-01T04:25:59.612Z,11.99
2019-06-01T04:28:29.973Z,12.06
2019-06-01T04:31:00.269Z,12.11
2019-06-01T04:33:33.186Z,12.19
2019-06-01T04:36:04.819Z,12.23
2019-06-01T04:38:38.127Z,12.28
2019-06-01T04:41:09.767Z,12.33
2019-06-01T04:43:41.601Z,12.43
2019-06-01T04:46:18.183Z,12.54
2019-06-01T04:48:50.302Z,12.59
2019-06-01T04:53:58.653Z,12.63
2019-06-01T04:56:29.290Z,12.70
2019-06-01T04:58:59.670Z,12.78
2019-06-01T05:01:30.328Z,12.91
2019-06-01T05:04:04.917Z,13.04
2019-06-01T05:06:35.363Z,13.19
2019-06-01T05:09:09.282Z,13.28
2019-06-01T05:11:39.994Z,13.41
2019-06-01T05:14:17.927Z,13.51
2019-06-01T05:16:49.407Z,13.63
2019-06-01T05:19:20.023Z,13.74
2019-06-01T05:22:10.422Z,13.86
2019-06-01T05:24:41.707Z,13.96
2019-06-01T05:27:13.141Z,14.07
2019-06-01T05:29:43.792Z,14.21
2019-06-01T05:32:17.199Z,14.34
2019-06-01T05:34:51.971Z,14.46
2019-06-01T05:37:22.269Z,14.56
2019-06-01T05:39:52.654Z,14.69
2019-06-01T05:42:23.283Z,14.81
2019-06-01T05:44:53.594Z,14.93
2019-06-01T05:47:24.159Z,15.04
2019-06-01T05:49:54.605Z,15.17
2019-06-01T05:52:28.991Z,15.31
2019-06-01T05:54:59.491Z,15.43
2019-06-01T05:57:31.123Z,15.53
2019-06-01T06:00:03.875Z,15.68
2019-06-01T06:02:37.269Z,15.83
2019-06-01T06:05:10.645Z,15.98
2019-06-01T06:07:46.806Z,16.08
2019-06-01T06:10:18.416Z,16.19
2019-06-01T06:12:49.135Z,16.37
2019-06-01T06:15:21.890Z,16.52
2019-06-01T06:17:52.266Z,16.66
2019-06-01T06:20:25.253Z,16.78
2019-06-01T06:22:58.279Z,16.85
2019-06-01T06:25:33.303Z,16.98
2019-06-01T06:28:05.198Z,17.11
2019-06-01T06:30:39.937Z,17.20
2019-06-01T06:33:17.403Z,17.32
2019-06-01T06:35:48.028Z,17.38
2019-06-01T06:38:19.777Z,17.51
2019-06-01T06:40:53.904Z,17.64
2019-06-01T06:43:33.169Z,17.75
2019-06-01T06:46:04.889Z,17.89
2019-06-01T06:48:38.263Z,18.07
2019-06-01T06:51:11.833Z,18.23
2019-06-01T06:53:43.911Z,18.43
2019-06-01T06:56:16.236Z,18.61
2019-06-01T06:58:49.625Z,18.70
2019-06-01T07:01:25.011Z,18.77
2019-06-01T07:04:11.788Z,18.88
2019-06-01T07:06:32.153Z,18.99
2019-06-01T07:09:09.025Z,19.09
2019-06-01T07:11:39.353Z,19.15
2019-06-01T07:14:09.941Z,19.33
2019-06-01T07:16:40.260Z,19.46
2019-06-01T07:19:13.795Z,19.58
2019-06-01T07:21:45.124Z,19.72
2019-06-01T07:24:15.745Z,19.95
2019-06-01T07:26:46.127Z,20.14
2019-06-01T07:29:16.441Z,20.31
2019-06-01T07:31:46.735Z,20.40
2019-06-01T07:34:31.045Z,20.48
2019-06-01T07:36:52.623Z,20.50
2019-06-01T07:39:24.748Z,20.61
2019-06-01T07:41:55.282Z,20.79
2019-06-01T07:44:26.851Z,20.89
2019-06-01T07:46:57.368Z,20.99
2019-06-01T07:49:27.618Z,21.05
2019-06-01T07:51:58.453Z,21.20
2019-06-01T07:54:32.704Z,21.26
2019-06-01T07:57:12.258Z,21.44
2019-06-01T07:59:43.677Z,21.55
2019-06-01T08:02:14.203Z,21.77
2019-06-01T08:04:53.565Z,22.04
2019-06-01T08:07:16.782Z,22.18
2019-06-01T08:09:47.168Z,22.33
2019-06-01T08:12:19.020Z,22.60
2019-06-01T08:14:49.411Z,22.81
2019-06-01T08:17:19.711Z,22.97
2019-06-01T08:19:53.749Z,23.11
2019-06-01T08:22:24.156Z,23.24
2019-06-01T08:24:54.599Z,23.44
2019-06-01T08:27:28.715Z,23.61
2019-06-01T08:29:59.138Z,23.81
2019-06-01T08:32:31.280Z,23.82
2019-06-01T08:35:11.568Z,24.09
2019-06-01T08:37:42.260Z,24.08
2019-06-01T08:40:15.600Z,24.80
2019-06-01T08:42:48.276Z,25.32
2019-06-01T08:45:23.533Z,26.28
2019-06-01T08:47:54.126Z,27.00
2019-06-01T08:50:25.699Z,27.29
2019-06-01T08:52:56.220Z,27.80
2019-06-01T08:55:28.116Z,27.69
2019-06-01T08:57:58.616Z,27.65
2019-06-01T09:00:32.668Z,28.06
2019-06-01T09:03:07.435Z,28.58
2019-06-01T09:05:38.722Z,28.65
2019-06-01T09:08:10.171Z,29.19
2019-06-01T09:10:40.819Z,28.50
2019-06-01T09:13:12.504Z,28.57
2019-06-01T09:15:44.483Z,28.85
2019-06-01T09:18:21.117Z,29.23
2019-06-01T09:20:53.240Z,29.37
2019-06-01T09:23:27.599Z,29.79
2019-06-01T09:26:12.039Z,29.23
2019-06-01T09:28:46.167Z,28.53
2019-06-01T09:31:32.697Z,28.89
2019-06-01T09:34:08.363Z,29.34
2019-06-01T09:37:05.983Z,29.71
2019-06-01T09:39:40.415Z,29.99
2019-06-01T09:42:12.504Z,30.30
2019-06-01T09:44:46.601Z,30.68
2019-06-01T09:47:19.654Z,31.28
2019-06-01T09:49:50.242Z,31.31
2019-06-01T09:52:22.715Z,31.37
2019-06-01T09:54:53.459Z,31.50
2019-06-01T09:57:24.037Z,31.11
2019-06-01T10:00:01.714Z,30.98
2019-06-01T10:02:40.650Z,31.79
2019-06-01T10:05:16.770Z,31.69
2019-06-01T10:07:59.482Z,31.93
2019-06-01T10:10:42.839Z,32.16
2019-06-01T10:13:27.920Z,32.79
2019-06-01T10:15:58.994Z,31.91
2019-06-01T10:18:35.107Z,31.87
2019-06-01T10:21:15.293Z,31.91
2019-06-01T10:23:49.971Z,31.66
2019-06-01T10:26:26.784Z,32.23
2019-06-01T10:29:13.785Z,32.21
2019-06-01T10:32:26.839Z,31.99
2019-06-01T10:37:46.090Z,31.57
2019-06-01T10:40:24.989Z,30.71
2019-06-01T10:43:24.333Z,30.40
2019-06-01T10:45:58.576Z,29.64
2019-06-01T10:51:40.364Z,28.95
2019-06-01T10:54:19.800Z,28.90
2019-06-01T10:56:55.543Z,29.32
2019-06-01T10:59:36.303Z,29.10
2019-06-01T11:02:16.510Z,28.66
2019-06-01T11:04:49.552Z,28.36
2019-06-01T11:08:30.006Z,28.20
2019-06-01T11:11:02.523Z,28.20
2019-06-01T11:13:39.374Z,28.24
2019-06-01T11:16:16.410Z,28.61
2019-06-01T11:19:11.774Z,28.57
2019-06-01T11:22:09.292Z,28.80
2019-06-01T11:24:50.880Z,28.44
2019-06-01T11:27:33.552Z,28.30
2019-06-01T11:30:28.910Z,28.30
2019-06-01T11:33:13.371Z,28.00
2019-06-01T11:36:08.614Z,29.24
2019-06-01T11:38:42.724Z,30.58
2019-06-01T11:41:23.862Z,31.80
2019-06-01T11:45:03.610Z,32.70
2019-06-01T11:50:43.026Z,33.88
2019-06-01T11:53:14.525Z,33.60
2019-06-01T11:55:48.470Z,33.09
2019-06-01T12:02:21.944Z,31.28
2019-06-01T12:04:54.032Z,30.79
2019-06-01T12:07:35.893Z,31.15
2019-06-01T12:10:11.178Z,31.09
2019-06-01T12:12:44.793Z,31.19
2019-06-01T12:15:18.893Z,31.39
2019-06-01T12:17:49.588Z,31.59
2019-06-01T12:20:24.936Z,32.97
2019-06-01T12:23:00.241Z,32.53
2019-06-01T12:25:33.831Z,32.22
2019-06-01T12:28:11.714Z,31.05
2019-06-01T12:30:49.823Z,30.51
2019-06-01T12:33:22.387Z,31.24
2019-06-01T12:35:55.803Z,31.79
2019-06-01T12:38:27.205Z,31.66
2019-06-01T12:41:03.265Z,31.78
2019-06-01T12:43:36.667Z,31.92
2019-06-01T12:46:10.426Z,31.12
2019-06-01T12:48:46.393Z,31.65
2019-06-01T12:51:22.825Z,32.07
2019-06-01T12:53:56.600Z,32.68
2019-06-01T12:56:32.654Z,33.24
2019-06-01T13:02:15.198Z,32.95
2019-06-01T13:04:49.091Z,32.77
2019-06-01T13:07:22.533Z,33.80
2019-06-01T13:09:54.390Z,35.62
2019-06-01T13:12:24.652Z,36.58
2019-06-01T13:15:08.289Z,38.55
2019-06-01T13:17:41.063Z,38.12
2019-06-01T13:20:12.004Z,38.94
2019-06-01T13:22:43.472Z,39.14
2019-06-01T13:25:14.140Z,39.26
2019-06-01T13:27:44.425Z,39.49
2019-06-01T13:30:16.737Z,38.67
2019-06-01T13:32:46.917Z,38.87
2019-06-01T13:35:20.810Z,39.30
2019-06-01T13:38:11.945Z,40.15
2019-06-01T13:40:37.538Z,40.14
2019-06-01T13:43:11.949Z,40.18
2019-06-01T13:45:43.191Z,40.55
2019-06-01T13:48:22.483Z,40.53
2019-06-01T13:50:55.612Z,40.04
2019-06-01T13:53:25.915Z,37.68
2019-06-01T13:56:08.424Z,38.22
2019-06-01T13:58:41.194Z,36.38
2019-06-01T14:01:17.908Z,36.57
2019-06-01T14:03:49.365Z,33.47
2019-06-01T14:06:29.696Z,31.50
2019-06-01T14:09:01.695Z,30.52
2019-06-01T14:11:37.044Z,29.49
2019-06-01T14:14:07.669Z,28.72
2019-06-01T14:16:47.487Z,28.29
2019-06-01T14:19:18.000Z,28.40
2019-06-01T14:21:52.168Z,28.83
2019-06-01T14:24:25.261Z,31.35
2019-06-01T14:27:46.321Z,33.97
2019-06-01T14:30:18.266Z,35.98
2019-06-01T14:32:52.569Z,37.23
2019-06-01T14:35:22.838Z,36.60
2019-06-01T14:37:53.780Z,38.25
2019-06-01T14:40:27.099Z,37.84
2019-06-01T14:42:58.164Z,38.29
2019-06-01T14:45:34.665Z,38.65
2019-06-01T14:48:17.458Z,39.08
2019-06-01T14:50:47.801Z,38.99
2019-06-01T14:53:19.767Z,38.46
2019-06-01T14:55:55.830Z,38.51
2019-06-01T14:58:34.164Z,36.76
2019-06-01T15:01:05.825Z,35.42
2019-06-01T15:03:42.929Z,35.53
2019-06-01T15:06:13.286Z,36.81
2019-06-01T15:09:13.184Z,37.75
2019-06-01T15:11:25.807Z,37.90
2019-06-01T15:18:46.290Z,38.73
2019-06-01T15:24:37.761Z,38.18
2019-06-01T15:27:08.605Z,38.41
2019-06-01T15:29:43.878Z,39.38
2019-06-01T15:32:32.507Z,38.18
2019-06-01T15:35:22.309Z,37.85
2019-06-01T15:38:01.845Z,35.56
2019-06-01T15:40:30.680Z,33.52
2019-06-01T15:43:04.288Z,32.69
2019-06-01T15:45:41.383Z,31.66
2019-06-01T15:48:14.213Z,31.36
2019-06-01T15:50:46.999Z,30.84
2019-06-01T15:53:22.397Z,30.38
2019-06-01T15:56:11.664Z,30.19
2019-06-01T15:58:52.274Z,29.89
2019-06-01T16:01:20.144Z,29.73
2019-06-01T16:03:55.084Z,29.67
2019-06-01T16:06:27.256Z,29.44
2019-06-01T16:08:57.564Z,29.48
2019-06-01T16:11:36.492Z,29.35
2019-06-01T16:14:09.091Z,29.07
2019-06-01T16:17:12.277Z,28.94
2019-06-01T16:19:44.620Z,28.90
2019-06-01T16:22:19.481Z,28.81
2019-06-01T16:25:18.071Z,28.61
2019-06-01T16:28:05.656Z,28.57
2019-06-01T16:30:35.954Z,28.67
2019-06-01T16:33:20.093Z,28.56
2019-06-01T16:35:50.479Z,28.57
2019-06-01T16:38:20.822Z,28.49
2019-06-01T16:40:53.502Z,28.38
2019-06-01T16:43:25.974Z,28.17
2019-06-01T16:45:59.678Z,28.17
2019-06-01T16:48:30.261Z,27.82
2019-06-01T16:51:01.786Z,27.66
2019-06-01T16:53:32.535Z,27.68
2019-06-01T16:56:03.984Z,27.60
2019-06-01T16:58:38.077Z,27.43
2019-06-01T17:01:10.180Z,27.34
2019-06-01T17:03:43.196Z,27.35
2019-06-01T17:06:13.820Z,27.16
2019-06-01T17:08:50.518Z,27.02
2019-06-01T17:11:20.911Z,26.80
2019-06-01T17:13:53.232Z,26.74
2019-06-01T17:16:50.220Z,26.62
2019-06-01T17:19:27.402Z,26.46
2019-06-01T17:21:59.969Z,26.41
2019-06-01T17:24:30.248Z,26.45
2019-06-01T17:27:02.040Z,26.30
2019-06-01T17:29:33.387Z,26.17
2019-06-01T17:32:16.810Z,25.98
2019-06-01T17:34:44.391Z,25.93
2019-06-01T17:37:17.576Z,25.92
2019-06-01T17:39:47.925Z,25.92
2019-06-01T17:42:20.254Z,25.88
2019-06-01T17:44:56.834Z,25.83
2019-06-01T17:47:27.903Z,25.72
2019-06-01T17:50:26.230Z,25.55
2019-06-01T17:52:58.034Z,25.44
2019-06-01T17:55:35.185Z,25.50
2019-06-01T17:58:12.420Z,25.40
2019-06-01T18:00:53.899Z,25.38
2019-06-01T18:03:30.108Z,25.14
2019-06-01T18:06:03.676Z,25.08
2019-06-01T18:08:34.591Z,24.93
2019-06-01T18:11:08.737Z,24.58
2019-06-01T18:13:47.098Z,24.30
2019-06-01T18:16:21.251Z,24.11
2019-06-01T18:18:52.515Z,24.14
2019-06-01T18:21:35.745Z,24.14
2019-06-01T18:24:30.626Z,24.08
2019-06-01T18:27:06.551Z,23.95
2019-06-01T18:29:48.711Z,23.76
2019-06-01T18:32:18.766Z,23.58
2019-06-01T18:34:49.264Z,23.38
2019-06-01T18:37:24.058Z,23.20
2019-06-01T18:39:57.224Z,23.02
2019-06-01T18:42:30.807Z,22.90
2019-06-01T18:45:11.791Z,22.76
2019-06-01T18:48:00.667Z,22.63
2019-06-01T18:50:32.001Z,22.50
2019-06-01T18:53:06.329Z,22.31
2019-06-01T18:55:37.080Z,22.18
2019-06-01T18:58:14.991Z,22.03
2019-06-01T19:00:45.558Z,21.88
2019-06-01T19:03:19.490Z,21.73
2019-06-01T19:06:09.555Z,21.58
2019-06-01T19:08:45.183Z,21.43
2019-06-01T19:11:29.409Z,21.30
2019-06-01T19:13:49.939Z,21.21
2019-06-01T19:16:30.615Z,21.11
2019-06-01T19:19:01.002Z,20.99
2019-06-01T19:21:31.495Z,20.87
2019-06-01T19:24:06.442Z,20.75
2019-06-01T19:26:38.207Z,20.68
2019-06-01T19:29:17.828Z,20.58
2019-06-01T19:32:04.246Z,20.49
2019-06-01T19:34:40.129Z,20.34
2019-06-01T19:37:17.201Z,20.23
2019-06-01T19:39:47.583Z,20.18
2019-06-01T19:42:18.949Z,20.12
2019-06-01T19:45:28.786Z,20.02
2019-06-01T19:47:57.285Z,19.92
2019-06-01T19:50:29.185Z,19.81
2019-06-01T19:52:59.943Z,19.69
2019-06-01T19:55:38.410Z,19.53
2019-06-01T19:58:12.138Z,19.44
2019-06-01T20:00:46.703Z,19.38
2019-06-01T20:03:21.535Z,19.33
2019-06-01T20:05:56.997Z,19.26
2019-06-01T20:08:27.294Z,19.12
2019-06-01T20:11:01.487Z,19.08
2019-06-01T20:13:42.236Z,18.99
2019-06-01T20:16:32.821Z,18.97
2019-06-01T20:19:18.090Z,18.90
2019-06-01T20:21:49.705Z,18.79
2019-06-01T20:24:25.656Z,18.72
2019-06-01T20:26:58.803Z,18.68
2019-06-01T20:29:33.039Z,18.61
2019-06-01T20:32:06.471Z,18.53
2019-06-01T20:34:41.688Z,18.46
2019-06-01T20:37:14.593Z,18.41
2019-06-01T20:39:49.604Z,18.33
2019-06-01T20:42:37.831Z,18.21
2019-06-01T20:45:16.782Z,18.15
2019-06-01T20:47:47.280Z,18.10
2019-06-01T20:50:25.531Z,18.07
2019-06-01T20:52:59.246Z,18.01
2019-06-01T20:55:34.196Z,17.91
2019-06-01T20:58:06.538Z,17.84
2019-06-01T21:00:39.973Z,17.78
2019-06-01T21:03:13.734Z,17.71
2019-06-01T21:05:52.185Z,17.67
2019-06-01T21:08:30.155Z,17.69
2019-06-01T21:11:03.149Z,17.60
2019-06-01T21:13:35.896Z,17.58
2019-06-01T21:16:07.675Z,17.52
2019-06-01T21:18:40.993Z,17.46
2019-06-01T21:21:11.874Z,17.41
2019-06-01T21:23:48.641Z,17.36
2019-06-01T21:26:21.082Z,17.31
2019-06-01T21:28:54.872Z,17.28
2019-06-01T21:31:27.718Z,17.21
2019-06-01T21:34:01.441Z,17.18
2019-06-01T21:36:36.379Z,17.18
2019-06-01T21:39:13.734Z,17.15
2019-06-01T21:41:46.624Z,17.14
2019-06-01T21:44:30.117Z,17.16
2019-06-01T21:46:52.002Z,17.18
2019-06-01T21:49:31.383Z,17.14
2019-06-01T21:52:04.060Z,17.12
2019-06-01T21:54:39.006Z,17.01
2019-06-01T21:57:11.802Z,16.93
2019-06-01T21:59:54.370Z,16.86
2019-06-01T22:02:25.149Z,16.81
2019-06-01T22:04:58.723Z,16.73
2019-06-01T22:07:31.319Z,16.65
2019-06-01T22:10:07.001Z,16.59
2019-06-01T22:12:40.584Z,16.46
2019-06-01T22:15:12.568Z,16.49
2019-06-01T22:17:48.565Z,16.40
2019-06-01T22:20:28.295Z,16.32
2019-06-01T22:23:12.142Z,16.23
2019-06-01T22:25:42.572Z,16.18
2019-06-01T22:28:13.645Z,16.10
2019-06-01T22:30:46.997Z,16.07
2019-06-01T22:33:22.658Z,16.07
2019-06-01T22:35:52.796Z,16.04
2019-06-01T22:38:27.866Z,16.00
2019-06-01T22:40:58.243Z,15.99
2019-06-01T22:43:43.432Z,15.99
2019-06-01T22:46:05.308Z,15.92
2019-06-01T22:48:38.225Z,15.87
2019-06-01T22:51:10.102Z,15.86
2019-06-01T22:53:41.810Z,15.83
2019-06-01T22:56:12.131Z,15.83
2019-06-01T22:58:42.692Z,15.78
2019-06-01T23:01:12.980Z,15.75
2019-06-01T23:03:43.240Z,15.72
2019-06-01T23:06:14.096Z,15.71
2019-06-01T23:08:47.780Z,15.66
2019-06-01T23:11:21.329Z,15.61
2019-06-01T23:14:05.252Z,15.63
2019-06-01T23:16:36.295Z,15.61
2019-06-01T23:19:08.260Z,15.54
2019-06-01T23:21:38.991Z,15.52
2019-06-01T23:24:09.410Z,15.51
2019-06-01T23:26:44.928Z,15.49
2019-06-01T23:29:18.255Z,15.47
2019-06-01T23:31:52.429Z,15.45
2019-06-01T23:34:30.771Z,15.42
2019-06-01T23:37:11.892Z,15.41
2019-06-01T23:39:44.798Z,15.42
2019-06-01T23:42:15.382Z,15.40
2019-06-01T23:44:45.634Z,15.38
2019-06-01T23:47:18.857Z,15.37
2019-06-01T23:49:49.303Z,15.31
2019-06-01T23:52:23.530Z,15.29
2019-06-01T23:54:53.242Z,15.27
2019-06-01T23:57:23.765Z,15.25
2019-06-01T23:59:54.180Z,15.23
